createdAt,value
2018-07-06T00:00:04.094Z,94926.67
2018-07-06T00:02:30.729Z,94917.92
2018-07-06T00:04:57.365Z,94923.39
2018-07-06T00:07:24.020Z,94917.70
2018-07-06T00:09:50.685Z,94921.80
2018-07-06T00:12:17.353Z,94920.78
2018-07-06T00:14:43.960Z,94920.03
2018-07-06T00:17:10.599Z,94918.16
2018-07-06T00:19:37.236Z,94920.10
2018-07-06T00:22:03.879Z,94919.06
2018-07-06T00:24:30.526Z,94919.81
2018-07-06T00:26:57.185Z,94915.44
2018-07-06T00:29:23.835Z,94909.59
2018-07-06T00:31:50.469Z,94912.53
2018-07-06T00:34:17.115Z,94913.28
2018-07-06T00:36:43.813Z,94913.48
2018-07-06T00:39:10.414Z,94911.78
2018-07-06T00:41:37.054Z,94905.26
2018-07-06T00:44:03.723Z,94906.50
2018-07-06T00:46:30.330Z,94906.28
2018-07-06T00:48:56.975Z,94904.69
2018-07-06T00:51:23.605Z,94904.31
2018-07-06T00:53:50.243Z,94905.59
2018-07-06T00:56:16.871Z,94900.40
2018-07-06T00:58:43.512Z,94905.59
2018-07-06T01:01:10.146Z,94904.31
2018-07-06T01:03:36.774Z,94905.41
2018-07-06T01:06:03.452Z,94897.72
2018-07-06T01:08:30.058Z,94900.92
2018-07-06T01:10:56.679Z,94898.14
2018-07-06T01:13:23.318Z,94906.58
2018-07-06T01:15:49.955Z,94899.87
2018-07-06T01:18:16.598Z,94895.31
2018-07-06T01:20:43.247Z,94902.77
2018-07-06T01:23:09.878Z,94898.77
2018-07-06T01:25:36.635Z,94889.61
2018-07-06T01:28:03.265Z,94899.03
2018-07-06T01:30:29.904Z,94898.55
2018-07-06T01:32:56.548Z,94897.53
2018-07-06T01:35:23.191Z,94894.44
2018-07-06T01:37:49.826Z,94894.33
2018-07-06T01:40:16.468Z,94890.78
2018-07-06T01:42:43.116Z,94894.02
2018-07-06T01:45:09.755Z,94890.25
2018-07-06T01:47:36.983Z,94883.44
2018-07-06T01:50:03.624Z,94884.11
2018-07-06T01:52:30.261Z,94885.47
2018-07-06T01:54:56.916Z,94886.37
2018-07-06T01:57:23.557Z,94888.70
2018-07-06T01:59:50.195Z,94880.64
2018-07-06T02:02:16.835Z,94880.98
2018-07-06T02:04:43.454Z,94879.70
2018-07-06T02:07:10.138Z,94876.88
2018-07-06T02:09:36.779Z,94881.62
2018-07-06T02:12:03.420Z,94880.80
2018-07-06T02:14:30.051Z,94875.40
2018-07-06T02:16:56.692Z,94883.47
2018-07-06T02:19:23.328Z,94880.75
2018-07-06T02:21:49.960Z,94879.91
2018-07-06T02:24:16.595Z,94885.42
2018-07-06T02:26:43.245Z,94884.41
2018-07-06T02:29:09.887Z,94885.12
2018-07-06T02:31:36.534Z,94883.23
2018-07-06T02:34:03.165Z,94877.13
2018-07-06T02:36:29.817Z,94886.36
2018-07-06T02:38:56.464Z,94884.39
2018-07-06T02:41:23.170Z,94889.19
2018-07-06T02:43:49.808Z,94886.02
2018-07-06T02:46:16.447Z,94896.64
2018-07-06T02:48:43.088Z,94890.53
2018-07-06T02:51:09.730Z,94893.47
2018-07-06T02:53:36.378Z,94891.11
2018-07-06T02:56:03.006Z,94894.07
2018-07-06T02:58:29.668Z,94897.43
2018-07-06T03:00:56.278Z,94898.03
2018-07-06T03:03:22.904Z,94902.32
2018-07-06T03:05:49.554Z,94897.81
2018-07-06T03:08:16.229Z,94905.11
2018-07-06T03:10:42.918Z,94908.06
2018-07-06T03:13:09.570Z,94901.55
2018-07-06T03:15:36.199Z,94897.90
2018-07-06T03:18:02.839Z,94897.95
2018-07-06T03:20:29.471Z,94902.61
2018-07-06T03:22:56.125Z,94903.89
2018-07-06T03:25:22.791Z,94908.09
2018-07-06T03:27:49.452Z,94900.11
2018-07-06T03:30:16.032Z,94898.88
2018-07-06T03:32:42.677Z,94905.30
2018-07-06T03:35:09.338Z,94900.88
2018-07-06T03:37:35.949Z,94903.20
2018-07-06T03:40:02.598Z,94904.09
2018-07-06T03:42:29.294Z,94905.12
2018-07-06T03:44:56.034Z,94903.94
2018-07-06T03:47:22.682Z,94906.17
2018-07-06T03:49:49.324Z,94908.91
2018-07-06T03:52:15.963Z,94907.52
2018-07-06T03:54:42.605Z,94904.25
2018-07-06T03:57:09.275Z,94905.17
2018-07-06T03:59:35.871Z,94910.16
2018-07-06T04:02:02.518Z,94903.12
2018-07-06T04:04:29.158Z,94897.08
2018-07-06T04:06:55.800Z,94903.38
2018-07-06T04:09:22.448Z,94899.27
2018-07-06T04:11:49.085Z,94897.61
2018-07-06T04:14:15.723Z,94892.80
2018-07-06T04:16:42.356Z,94898.58
2018-07-06T04:19:08.997Z,94898.09
2018-07-06T04:21:35.627Z,94898.39
2018-07-06T04:24:02.267Z,94896.06
2018-07-06T04:26:28.954Z,94895.34
2018-07-06T04:28:55.546Z,94898.85
2018-07-06T04:31:22.180Z,94898.81
2018-07-06T04:33:48.828Z,94900.80
2018-07-06T04:36:15.457Z,94898.66
2018-07-06T04:38:42.096Z,94903.89
2018-07-06T04:41:08.734Z,94903.63
2018-07-06T04:43:35.378Z,94901.80
2018-07-06T04:46:02.018Z,94902.47
2018-07-06T04:48:28.672Z,94902.28
2018-07-06T04:50:55.284Z,94899.73
2018-07-06T04:53:21.912Z,94897.42
2018-07-06T04:55:48.633Z,94892.48
2018-07-06T04:58:15.311Z,94892.22
2018-07-06T05:00:41.944Z,94898.06
2018-07-06T05:03:08.567Z,94898.22
2018-07-06T05:05:35.257Z,94896.31
2018-07-06T05:08:01.902Z,94897.95
2018-07-06T05:10:28.539Z,94896.59
2018-07-06T05:12:55.191Z,94893.84
2018-07-06T05:15:21.821Z,94890.00
2018-07-06T05:17:48.460Z,94897.80
2018-07-06T05:20:15.149Z,94900.85
2018-07-06T05:22:41.847Z,94898.03
2018-07-06T05:25:08.480Z,94896.90
2018-07-06T05:27:35.116Z,94902.31
2018-07-06T05:30:01.719Z,94901.27
2018-07-06T05:32:28.403Z,94901.16
2018-07-06T05:34:55.040Z,94898.70
2018-07-06T05:37:21.683Z,94902.73
2018-07-06T05:39:48.325Z,94904.94
2018-07-06T05:42:14.966Z,94902.53
2018-07-06T05:44:41.606Z,94898.66
2018-07-06T05:47:08.324Z,94900.17
2018-07-06T05:49:34.985Z,94901.05
2018-07-06T05:52:01.691Z,94901.16
2018-07-06T05:54:28.293Z,94903.88
2018-07-06T05:56:54.948Z,94908.70
2018-07-06T05:59:21.634Z,94896.14
2018-07-06T06:01:48.284Z,94895.42
2018-07-06T06:04:14.924Z,94898.02
2018-07-06T06:06:41.632Z,94907.28
2018-07-06T06:09:08.271Z,94903.60
2018-07-06T06:11:34.916Z,94907.17
2018-07-06T06:14:01.586Z,94904.38
2018-07-06T06:16:28.236Z,94908.03
2018-07-06T06:18:54.886Z,94907.69
2018-07-06T06:21:25.093Z,94903.19
2018-07-06T06:23:51.743Z,94906.25
2018-07-06T06:26:18.394Z,94908.85
2018-07-06T06:28:45.065Z,94896.98
2018-07-06T06:31:11.798Z,94899.48
2018-07-06T06:33:38.549Z,94903.30
2018-07-06T06:36:05.244Z,94899.41
2018-07-06T06:38:31.892Z,94891.70
2018-07-06T06:40:59.635Z,94887.13
2018-07-06T06:43:26.266Z,94885.98
2018-07-06T06:45:52.927Z,94884.58
2018-07-06T06:48:19.569Z,94886.36
2018-07-06T06:50:46.290Z,94882.14
2018-07-06T06:53:12.914Z,94876.66
2018-07-06T06:55:39.562Z,94869.44
2018-07-06T06:58:06.248Z,94873.52
2018-07-06T07:00:32.886Z,94871.90
2018-07-06T07:02:59.536Z,94877.70
2018-07-06T07:05:28.325Z,94872.28
2018-07-06T07:07:52.829Z,94874.33
2018-07-06T07:10:19.471Z,94869.84
2018-07-06T07:12:46.116Z,94875.03
2018-07-06T07:15:12.794Z,94863.32
2018-07-06T07:17:40.593Z,94878.48
2018-07-06T07:20:07.236Z,94871.41
2018-07-06T07:22:33.879Z,94873.07
2018-07-06T07:25:00.535Z,94870.49
2018-07-06T07:27:27.187Z,94869.88
2018-07-06T07:29:53.852Z,94859.36
2018-07-06T07:32:20.486Z,94869.92
2018-07-06T07:34:47.131Z,94865.98
2018-07-06T07:37:13.768Z,94870.38
2018-07-06T07:39:40.412Z,94870.95
2018-07-06T07:42:07.093Z,94864.75
2018-07-06T07:44:34.723Z,94865.36
2018-07-06T07:47:01.418Z,94863.67
2018-07-06T07:49:28.056Z,94864.21
2018-07-06T07:51:54.656Z,94865.05
2018-07-06T07:54:21.306Z,94863.76
2018-07-06T07:56:48.276Z,94862.39
2018-07-06T07:59:14.982Z,94863.03
2018-07-06T08:01:41.622Z,94863.14
2018-07-06T08:04:08.263Z,94860.61
2018-07-06T08:06:34.917Z,94866.87
2018-07-06T08:09:01.580Z,94858.41
2018-07-06T08:11:28.213Z,94862.44
2018-07-06T08:13:54.902Z,94858.50
2018-07-06T08:16:24.414Z,94858.36
2018-07-06T08:18:51.097Z,94856.77
2018-07-06T08:21:17.698Z,94851.35
2018-07-06T08:23:44.395Z,94856.70
2018-07-06T08:26:11.039Z,94849.42
2018-07-06T08:28:37.793Z,94855.91
2018-07-06T08:31:04.452Z,94860.20
2018-07-06T08:33:31.104Z,94858.59
2018-07-06T08:35:57.800Z,94849.45
2018-07-06T08:38:24.396Z,94853.86
2018-07-06T08:40:51.049Z,94847.14
2018-07-06T08:43:17.826Z,94846.25
2018-07-06T08:45:44.530Z,94847.28
2018-07-06T08:48:11.199Z,94846.45
2018-07-06T08:50:39.958Z,94847.06
2018-07-06T08:53:04.483Z,94848.77
2018-07-06T08:55:31.125Z,94848.53
2018-07-06T08:57:57.764Z,94845.40
2018-07-06T09:00:24.411Z,94851.52
2018-07-06T09:02:51.051Z,94840.05
2018-07-06T09:05:17.701Z,94849.57
2018-07-06T09:07:44.375Z,94843.63
2018-07-06T09:10:11.019Z,94847.87
2018-07-06T09:12:37.658Z,94837.47
2018-07-06T09:15:04.310Z,94840.02
2018-07-06T09:17:30.943Z,94837.60
2018-07-06T09:19:57.949Z,94841.30
2018-07-06T09:22:24.221Z,94835.59
2018-07-06T09:24:50.861Z,94832.81
2018-07-06T09:27:17.503Z,94826.25
2018-07-06T09:29:44.242Z,94819.31
2018-07-06T09:32:10.871Z,94819.14
2018-07-06T09:34:37.504Z,94817.85
2018-07-06T09:37:04.147Z,94817.48
2018-07-06T09:39:30.815Z,94813.81
2018-07-06T09:41:57.426Z,94804.39
2018-07-06T09:44:24.105Z,94804.75
2018-07-06T09:46:50.713Z,94798.62
2018-07-06T09:49:17.372Z,94802.22
2018-07-06T09:51:44.052Z,94801.88
2018-07-06T09:54:10.718Z,94795.69
2018-07-06T09:56:37.356Z,94798.08
2018-07-06T09:59:03.987Z,94802.36
2018-07-06T10:01:30.692Z,94795.36
2018-07-06T10:03:57.311Z,94806.09
2018-07-06T10:06:23.951Z,94801.48
2018-07-06T10:08:50.597Z,94792.63
2018-07-06T10:11:19.819Z,94796.27
2018-07-06T10:13:46.482Z,94791.62
2018-07-06T10:16:13.239Z,94786.77
2018-07-06T10:18:39.855Z,94785.54
2018-07-06T10:21:06.487Z,94786.38
2018-07-06T10:23:33.155Z,94788.59
2018-07-06T10:25:59.798Z,94778.00
2018-07-06T10:28:26.444Z,94785.67
2018-07-06T10:30:53.086Z,94782.48
2018-07-06T10:33:19.798Z,94776.50
2018-07-06T10:35:46.372Z,94780.47
2018-07-06T10:38:13.018Z,94779.42
2018-07-06T10:40:39.659Z,94776.72
2018-07-06T10:43:06.329Z,94774.25
2018-07-06T10:45:32.977Z,94781.83
2018-07-06T10:47:59.651Z,94778.38
2018-07-06T10:50:26.300Z,94774.89
2018-07-06T10:52:52.929Z,94773.47
2018-07-06T10:55:19.609Z,94774.73
2018-07-06T10:57:46.252Z,94774.31
2018-07-06T11:00:12.938Z,94764.31
2018-07-06T11:02:39.592Z,94756.45
2018-07-06T11:05:06.281Z,94756.03
2018-07-06T11:07:32.926Z,94759.44
2018-07-06T11:09:59.694Z,94756.23
2018-07-06T11:12:26.311Z,94762.30
2018-07-06T11:14:52.952Z,94761.55
2018-07-06T11:17:21.539Z,94760.45
2018-07-06T11:19:46.275Z,94754.36
2018-07-06T11:22:12.922Z,94753.74
2018-07-06T11:24:40.771Z,94754.09
2018-07-06T11:27:07.413Z,94753.92
2018-07-06T11:29:34.108Z,94751.02
2018-07-06T11:32:00.749Z,94750.78
2018-07-06T11:34:27.397Z,94746.70
2018-07-06T11:36:54.098Z,94749.09
2018-07-06T11:39:20.730Z,94746.26
2018-07-06T11:41:47.359Z,94738.30
2018-07-06T11:44:14.004Z,94737.27
2018-07-06T11:46:40.646Z,94739.70
2018-07-06T11:49:07.396Z,94745.72
2018-07-06T11:51:34.143Z,94740.26
2018-07-06T11:54:00.824Z,94742.20
2018-07-06T11:56:27.464Z,94739.22
2018-07-06T11:58:54.114Z,94743.40
2018-07-06T12:01:20.745Z,94736.91
2018-07-06T12:03:47.418Z,94727.70
2018-07-06T12:06:15.044Z,94726.92
2018-07-06T12:08:41.699Z,94715.41
2018-07-06T12:11:08.391Z,94710.76
2018-07-06T12:13:35.225Z,94713.78
2018-07-06T12:16:01.830Z,94716.23
2018-07-06T12:18:28.471Z,94709.09
2018-07-06T12:20:55.164Z,94709.42
2018-07-06T12:23:21.819Z,94706.75
2018-07-06T12:25:48.571Z,94701.20
2018-07-06T12:28:15.166Z,94690.20
2018-07-06T12:30:41.860Z,94690.69
2018-07-06T12:33:08.491Z,94691.31
2018-07-06T12:35:35.136Z,94702.83
2018-07-06T12:38:01.788Z,94703.80
2018-07-06T12:40:28.424Z,94705.53
2018-07-06T12:42:55.068Z,94695.91
2018-07-06T12:45:21.754Z,94697.23
2018-07-06T12:47:48.400Z,94692.11
2018-07-06T12:50:15.033Z,94689.27
2018-07-06T12:52:41.678Z,94684.03
2018-07-06T12:55:08.337Z,94682.72
2018-07-06T12:57:35.216Z,94691.59
2018-07-06T13:00:02.946Z,94692.70
2018-07-06T13:02:29.582Z,94687.83
2018-07-06T13:04:56.240Z,94684.45
2018-07-06T13:07:23.301Z,94675.28
2018-07-06T13:09:50.406Z,94678.54
2018-07-06T13:12:17.020Z,94676.78
2018-07-06T13:14:43.684Z,94678.36
2018-07-06T13:17:10.370Z,94669.59
2018-07-06T13:19:37.078Z,94666.44
2018-07-06T13:22:03.644Z,94658.52
2018-07-06T13:24:30.273Z,94657.33
2018-07-06T13:26:56.927Z,94667.58
2018-07-06T13:29:23.577Z,94671.28
2018-07-06T13:31:50.223Z,94682.16
2018-07-06T13:34:16.900Z,94695.08
2018-07-06T13:36:43.551Z,94695.60
2018-07-06T13:39:10.295Z,94689.33
2018-07-06T13:41:36.887Z,94688.68
2018-07-06T13:44:03.549Z,94689.59
2018-07-06T13:46:30.188Z,94690.41
2018-07-06T13:48:56.914Z,94687.29
2018-07-06T13:51:23.589Z,94682.98
2018-07-06T13:53:50.234Z,94677.75
2018-07-06T13:56:16.899Z,94675.89
2018-07-06T13:58:43.683Z,94680.69
2018-07-06T14:01:10.319Z,94687.50
2018-07-06T14:03:36.975Z,94689.69
2018-07-06T14:06:03.714Z,94688.87
2018-07-06T14:08:30.360Z,94694.58
2018-07-06T14:10:57.143Z,94695.70
2018-07-06T14:13:23.808Z,94708.38
2018-07-06T14:15:50.454Z,94722.14
2018-07-06T14:18:17.114Z,94730.94
2018-07-06T14:20:43.756Z,94733.97
2018-07-06T14:23:10.434Z,94732.72
2018-07-06T14:25:37.064Z,94734.64
2018-07-06T14:28:03.797Z,94726.50
2018-07-06T14:30:30.418Z,94723.75
2018-07-06T14:32:57.087Z,94725.77
2018-07-06T14:35:23.758Z,94735.19
2018-07-06T14:37:50.873Z,94736.86
2018-07-06T14:40:17.650Z,94736.16
2018-07-06T14:42:44.329Z,94744.06
2018-07-06T14:45:10.989Z,94751.34
2018-07-06T14:47:37.633Z,94754.98
2018-07-06T14:50:04.265Z,94759.95
2018-07-06T14:52:30.900Z,94765.50
2018-07-06T14:54:57.580Z,94773.75
2018-07-06T14:57:24.214Z,94782.69
2018-07-06T14:59:50.963Z,94788.52
2018-07-06T15:02:17.595Z,94793.56
2018-07-06T15:04:44.232Z,94789.19
2018-07-06T15:07:10.871Z,94801.39
2018-07-06T15:09:37.517Z,94796.38
2018-07-06T15:12:04.237Z,94797.69
2018-07-06T15:14:30.902Z,94787.69
2018-07-06T15:16:57.508Z,94790.14
2018-07-06T15:19:24.216Z,94802.30
2018-07-06T15:21:50.853Z,94791.59
2018-07-06T15:24:17.536Z,94786.64
2018-07-06T15:26:44.174Z,94766.56
2018-07-06T15:29:10.811Z,94768.11
2018-07-06T15:31:37.460Z,94759.13
2018-07-06T15:34:04.152Z,94761.92
2018-07-06T15:36:30.784Z,94765.06
2018-07-06T15:38:59.564Z,94755.61
2018-07-06T15:41:26.160Z,94755.59
2018-07-06T15:43:52.792Z,94761.01
2018-07-06T15:46:19.485Z,94765.34
2018-07-06T15:48:46.118Z,94765.23
2018-07-06T15:51:12.756Z,94760.05
2018-07-06T15:53:39.393Z,94760.00
2018-07-06T15:56:06.044Z,94755.80
2018-07-06T15:58:32.695Z,94748.20
2018-07-06T16:00:59.334Z,94742.11
2018-07-06T16:03:25.977Z,94744.18
2018-07-06T16:05:52.668Z,94739.73
2018-07-06T16:08:19.306Z,94732.89
2018-07-06T16:10:45.935Z,94731.76
2018-07-06T16:13:12.618Z,94737.95
2018-07-06T16:15:39.218Z,94736.38
2018-07-06T16:18:05.856Z,94734.61
2018-07-06T16:20:32.493Z,94735.41
2018-07-06T16:22:59.152Z,94731.58
2018-07-06T16:25:25.774Z,94738.02
2018-07-06T16:27:52.477Z,94738.02
2018-07-06T16:30:19.108Z,94737.91
2018-07-06T16:32:45.750Z,94735.81
2018-07-06T16:35:12.440Z,94732.01
2018-07-06T16:37:39.082Z,94727.34
2018-07-06T16:40:05.762Z,94715.19
2018-07-06T16:42:32.413Z,94719.06
2018-07-06T16:44:59.046Z,94722.86
2018-07-06T16:47:27.899Z,94724.17
2018-07-06T16:49:52.402Z,94717.58
2018-07-06T16:52:19.074Z,94717.93
2018-07-06T16:54:45.666Z,94708.44
2018-07-06T16:57:12.314Z,94717.53
2018-07-06T16:59:38.946Z,94725.87
2018-07-06T17:02:05.657Z,94719.27
2018-07-06T17:04:32.294Z,94720.48
2018-07-06T17:06:58.980Z,94727.74
2018-07-06T17:09:25.654Z,94738.30
2018-07-06T17:11:52.319Z,94733.75
2018-07-06T17:14:19.001Z,94742.16
2018-07-06T17:16:45.608Z,94745.52
2018-07-06T17:19:12.292Z,94752.41
2018-07-06T17:21:38.889Z,94755.56
2018-07-06T17:24:05.539Z,94765.22
2018-07-06T17:26:32.209Z,94769.73
2018-07-06T17:28:58.924Z,94775.20
2018-07-06T17:31:25.612Z,94785.04
2018-07-06T17:33:52.233Z,94789.63
2018-07-06T17:36:18.871Z,94796.72
2018-07-06T17:38:45.527Z,94801.62
2018-07-06T17:41:12.257Z,94799.66
2018-07-06T17:43:38.910Z,94803.42
2018-07-06T17:46:05.512Z,94802.75
2018-07-06T17:48:32.240Z,94805.42
2018-07-06T17:50:58.854Z,94808.78
2018-07-06T17:53:25.539Z,94805.59
2018-07-06T17:55:52.177Z,94805.66
2018-07-06T17:58:18.844Z,94795.58
2018-07-06T18:00:45.446Z,94801.08
2018-07-06T18:03:12.241Z,94805.31
2018-07-06T18:05:38.886Z,94798.49
2018-07-06T18:08:05.522Z,94796.19
2018-07-06T18:10:32.151Z,94798.19
2018-07-06T18:12:58.822Z,94791.80
2018-07-06T18:15:25.458Z,94793.44
2018-07-06T18:17:52.139Z,94785.16
2018-07-06T18:20:18.778Z,94781.02
2018-07-06T18:22:45.461Z,94773.98
2018-07-06T18:25:12.168Z,94769.23
2018-07-06T18:27:38.801Z,94763.63
2018-07-06T18:30:05.425Z,94762.13
2018-07-06T18:32:32.190Z,94761.81
2018-07-06T18:34:58.786Z,94770.47
2018-07-06T18:37:25.439Z,94772.13
2018-07-06T18:39:52.074Z,94778.63
2018-07-06T18:42:18.718Z,94783.52
2018-07-06T18:44:45.344Z,94787.89
2018-07-06T18:47:12.022Z,94799.43
2018-07-06T18:49:38.661Z,94796.77
2018-07-06T18:52:05.299Z,94796.53
2018-07-06T18:54:31.947Z,94803.45
2018-07-06T18:56:58.621Z,94795.75
2018-07-06T18:59:25.259Z,94801.45
2018-07-06T19:01:51.943Z,94801.66
2018-07-06T19:04:18.621Z,94803.48
2018-07-06T19:06:45.252Z,94811.77
2018-07-06T19:09:11.899Z,94804.45
2018-07-06T19:11:38.577Z,94810.52
2018-07-06T19:14:05.212Z,94804.20
2018-07-06T19:16:31.899Z,94811.91
2018-07-06T19:18:58.575Z,94812.84
2018-07-06T19:21:25.200Z,94810.02
2018-07-06T19:23:51.888Z,94807.38
2018-07-06T19:26:18.527Z,94802.25
2018-07-06T19:28:45.293Z,94809.77
2018-07-06T19:31:11.929Z,94806.39
2018-07-06T19:33:38.612Z,94801.55
2018-07-06T19:36:05.276Z,94802.66
2018-07-06T19:38:31.959Z,94798.83
2018-07-06T19:40:58.609Z,94803.98
2018-07-06T19:43:25.286Z,94810.14
2018-07-06T19:45:53.302Z,94817.61
2018-07-06T19:48:18.602Z,94825.34
2018-07-06T19:50:45.285Z,94827.02
2018-07-06T19:53:11.975Z,94823.01
2018-07-06T19:55:38.618Z,94834.52
2018-07-06T19:58:05.293Z,94828.77
2018-07-06T20:00:31.942Z,94832.56
2018-07-06T20:02:58.627Z,94835.23
2018-07-06T20:05:25.309Z,94831.06
2018-07-06T20:07:51.977Z,94837.01
2018-07-06T20:10:18.594Z,94847.91
2018-07-06T20:12:45.242Z,94848.78
2018-07-06T20:15:11.921Z,94847.13
2018-07-06T20:17:38.554Z,94846.20
2018-07-06T20:20:05.239Z,94850.11
2018-07-06T20:22:31.924Z,94856.11
2018-07-06T20:24:58.561Z,94848.87
2018-07-06T20:27:25.287Z,94847.66
2018-07-06T20:29:51.933Z,94850.23
2018-07-06T20:32:18.567Z,94847.70
2018-07-06T20:34:45.223Z,94850.33
2018-07-06T20:37:11.938Z,94857.54
2018-07-06T20:39:38.577Z,94848.25
2018-07-06T20:42:05.218Z,94846.63
2018-07-06T20:44:31.863Z,94849.53
2018-07-06T20:46:58.503Z,94844.38
2018-07-06T20:49:25.131Z,94848.17
2018-07-06T20:51:51.781Z,94843.95
2018-07-06T20:54:18.416Z,94843.25
2018-07-06T20:56:45.055Z,94850.12
2018-07-06T20:59:11.702Z,94853.22
2018-07-06T21:01:38.332Z,94851.71
2018-07-06T21:04:04.978Z,94856.08
2018-07-06T21:06:31.614Z,94857.65
2018-07-06T21:08:58.256Z,94857.33
2018-07-06T21:11:24.898Z,94866.08
2018-07-06T21:13:51.527Z,94874.02
2018-07-06T21:16:18.169Z,94866.48
2018-07-06T21:18:44.809Z,94865.16
2018-07-06T21:21:11.516Z,94856.22
2018-07-06T21:23:38.151Z,94849.69
2018-07-06T21:26:04.789Z,94838.38
2018-07-06T21:28:31.432Z,94838.28
2018-07-06T21:30:58.068Z,94847.59
2018-07-06T21:33:24.705Z,94848.55
2018-07-06T21:35:51.380Z,94856.32
2018-07-06T21:38:17.989Z,94850.12
2018-07-06T21:40:44.638Z,94854.69
2018-07-06T21:43:11.293Z,94853.56
2018-07-06T21:45:37.925Z,94853.85
2018-07-06T21:48:04.560Z,94861.31
2018-07-06T21:50:31.198Z,94870.53
2018-07-06T21:52:57.874Z,94867.00
2018-07-06T21:55:24.475Z,94867.75
2018-07-06T21:57:51.104Z,94861.11
2018-07-06T22:00:17.752Z,94854.07
2018-07-06T22:02:44.393Z,94856.42
2018-07-06T22:05:11.031Z,94846.19
2018-07-06T22:07:37.669Z,94858.16
2018-07-06T22:10:04.333Z,94856.52
2018-07-06T22:12:30.971Z,94865.56
2018-07-06T22:14:57.643Z,94857.33
2018-07-06T22:17:24.250Z,94863.27
2018-07-06T22:19:50.890Z,94863.97
2018-07-06T22:22:17.522Z,94864.55
2018-07-06T22:24:44.168Z,94858.72
2018-07-06T22:27:10.806Z,94849.24
2018-07-06T22:29:37.440Z,94853.61
2018-07-06T22:32:04.083Z,94847.75
2018-07-06T22:34:30.717Z,94847.06
2018-07-06T22:36:57.361Z,94844.22
2018-07-06T22:39:24.011Z,94839.41
2018-07-06T22:41:50.657Z,94829.12
2018-07-06T22:44:17.294Z,94825.61
2018-07-06T22:46:43.939Z,94822.12
2018-07-06T22:49:10.587Z,94826.62
2018-07-06T22:51:37.248Z,94822.73
2018-07-06T22:54:03.892Z,94827.33
2018-07-06T22:56:30.541Z,94822.72
2018-07-06T22:58:57.223Z,94819.72
2018-07-06T23:01:23.859Z,94816.02
2018-07-06T23:03:50.503Z,94815.31
2018-07-06T23:06:17.241Z,94809.13
2018-07-06T23:08:43.774Z,94799.00
2018-07-06T23:11:10.413Z,94807.07
2018-07-06T23:13:37.192Z,94805.26
2018-07-06T23:16:03.686Z,94803.05
2018-07-06T23:18:30.319Z,94794.58
2018-07-06T23:20:56.956Z,94793.61
2018-07-06T23:23:23.596Z,94794.90
2018-07-06T23:25:50.253Z,94793.92
2018-07-06T23:28:16.891Z,94796.20
2018-07-06T23:30:43.577Z,94793.34
2018-07-06T23:33:10.302Z,94800.31
2018-07-06T23:35:36.905Z,94796.20
2018-07-06T23:38:03.544Z,94800.47
2018-07-06T23:40:30.180Z,94797.19
2018-07-06T23:42:56.807Z,94801.11
2018-07-06T23:45:23.494Z,94799.71
2018-07-06T23:47:50.093Z,94799.94
2018-07-06T23:50:16.730Z,94797.54
2018-07-06T23:52:43.380Z,94793.43
2018-07-06T23:55:10.024Z,94797.27
2018-07-06T23:57:36.663Z,94797.05
